sensor_id;sensor_type;location;lat;lon;timestamp;P1;durP1;ratioP1;P2;durP2;ratioP2
38611;SDS011;24368;52.156;20.788;2023-02-13T00:03:13;18.00;;;11.60;;
38611;SDS011;24368;52.156;20.788;2023-02-13T00:08:15;19.60;;;11.10;;
38611;SDS011;24368;52.156;20.788;2023-02-13T00:13:17;18.60;;;11.00;;
38611;SDS011;24368;52.156;20.788;2023-02-13T00:18:19;19.20;;;11.90;;
38611;SDS011;24368;52.156;20.788;2023-02-13T00:23:20;18.90;;;13.50;;
38611;SDS011;24368;52.156;20.788;2023-02-13T00:28:22;15.60;;;10.90;;
38611;SDS011;24368;52.156;20.788;2023-02-13T00:33:24;18.10;;;12.80;;
38611;SDS011;24368;52.156;20.788;2023-02-13T00:38:28;21.40;;;13.70;;
38611;SDS011;24368;52.156;20.788;2023-02-13T00:43:30;20.70;;;11.50;;
38611;SDS011;24368;52.156;20.788;2023-02-13T00:48:33;16.90;;;12.70;;
38611;SDS011;24368;52.156;20.788;2023-02-13T00:53:35;18.70;;;11.90;;
38611;SDS011;24368;52.156;20.788;2023-02-13T00:58:38;19.20;;;11.60;;
38611;SDS011;24368;52.156;20.788;2023-02-13T01:03:39;19.60;;;12.10;;
38611;SDS011;24368;52.156;20.788;2023-02-13T01:08:41;19.50;;;13.50;;
38611;SDS011;24368;52.156;20.788;2023-02-13T01:13:44;19.80;;;13.30;;
38611;SDS011;24368;52.156;20.788;2023-02-13T01:18:46;21.50;;;14.60;;
38611;SDS011;24368;52.156;20.788;2023-02-13T01:23:48;17.50;;;12.70;;
38611;SDS011;24368;52.156;20.788;2023-02-13T01:28:53;21.60;;;13.50;;
38611;SDS011;24368;52.156;20.788;2023-02-13T01:38:58;13.70;;;9.90;;
38611;SDS011;24368;52.156;20.788;2023-02-13T01:44:00;22.40;;;12.70;;
38611;SDS011;24368;52.156;20.788;2023-02-13T01:49:09;17.50;;;13.70;;
38611;SDS011;24368;52.156;20.788;2023-02-13T01:54:17;17.80;;;13.10;;
38611;SDS011;24368;52.156;20.788;2023-02-13T01:59:24;19.30;;;12.40;;
38611;SDS011;24368;52.156;20.788;2023-02-13T02:04:33;15.90;;;9.80;;
38611;SDS011;24368;52.156;20.788;2023-02-13T02:09:40;15.90;;;11.70;;
38611;SDS011;24368;52.156;20.788;2023-02-13T02:14:44;21.10;;;11.40;;
38611;SDS011;24368;52.156;20.788;2023-02-13T02:41:40;18.60;;;11.40;;
38611;SDS011;24368;52.156;20.788;2023-02-13T02:46:48;14.60;;;11.40;;
38611;SDS011;24368;52.156;20.788;2023-02-13T02:52:24;17.50;;;11.00;;
38611;SDS011;24368;52.156;20.788;2023-02-13T02:57:33;13.10;;;11.00;;
38611;SDS011;24368;52.156;20.788;2023-02-13T03:03:21;18.10;;;10.50;;
38611;SDS011;24368;52.156;20.788;2023-02-13T03:08:44;15.60;;;11.10;;
38611;SDS011;24368;52.156;20.788;2023-02-13T03:14:12;13.90;;;10.20;;
38611;SDS011;24368;52.156;20.788;2023-02-13T03:30:00;17.50;;;11.40;;
38611;SDS011;24368;52.156;20.788;2023-02-13T03:47:20;12.70;;;9.70;;
38611;SDS011;24368;52.156;20.788;2023-02-13T03:57:23;15.20;;;10.70;;
38611;SDS011;24368;52.156;20.788;2023-02-13T04:07:56;16.30;;;11.20;;
38611;SDS011;24368;52.156;20.788;2023-02-13T04:13:10;14.40;;;10.50;;
38611;SDS011;24368;52.156;20.788;2023-02-13T04:18:26;17.90;;;13.30;;
38611;SDS011;24368;52.156;20.788;2023-02-13T04:23:30;16.60;;;11.50;;
38611;SDS011;24368;52.156;20.788;2023-02-13T04:28:32;17.60;;;12.60;;
38611;SDS011;24368;52.156;20.788;2023-02-13T04:33:33;17.50;;;12.80;;
38611;SDS011;24368;52.156;20.788;2023-02-13T04:38:35;17.70;;;13.20;;
38611;SDS011;24368;52.156;20.788;2023-02-13T04:43:37;16.30;;;13.20;;
38611;SDS011;24368;52.156;20.788;2023-02-13T04:48:39;18.20;;;12.70;;
38611;SDS011;24368;52.156;20.788;2023-02-13T04:53:41;20.20;;;12.90;;
38611;SDS011;24368;52.156;20.788;2023-02-13T04:58:42;14.40;;;10.50;;
38611;SDS011;24368;52.156;20.788;2023-02-13T05:03:44;15.80;;;11.80;;
38611;SDS011;24368;52.156;20.788;2023-02-13T05:08:46;17.00;;;12.30;;
38611;SDS011;24368;52.156;20.788;2023-02-13T05:13:48;15.30;;;11.40;;
38611;SDS011;24368;52.156;20.788;2023-02-13T05:18:50;12.30;;;9.90;;
38611;SDS011;24368;52.156;20.788;2023-02-13T05:23:55;17.50;;;12.90;;
38611;SDS011;24368;52.156;20.788;2023-02-13T05:28:57;16.60;;;12.20;;
38611;SDS011;24368;52.156;20.788;2023-02-13T05:34:18;21.10;;;14.70;;
38611;SDS011;24368;52.156;20.788;2023-02-13T05:39:21;14.90;;;12.40;;
38611;SDS011;24368;52.156;20.788;2023-02-13T05:44:23;17.80;;;13.00;;
38611;SDS011;24368;52.156;20.788;2023-02-13T05:49:24;18.90;;;12.00;;
38611;SDS011;24368;52.156;20.788;2023-02-13T05:54:26;17.40;;;11.90;;
38611;SDS011;24368;52.156;20.788;2023-02-13T05:59:28;19.50;;;12.50;;
38611;SDS011;24368;52.156;20.788;2023-02-13T06:04:30;16.40;;;10.50;;
38611;SDS011;24368;52.156;20.788;2023-02-13T06:09:31;16.20;;;10.60;;
38611;SDS011;24368;52.156;20.788;2023-02-13T06:14:33;17.70;;;10.60;;
38611;SDS011;24368;52.156;20.788;2023-02-13T06:19:35;15.70;;;11.10;;
38611;SDS011;24368;52.156;20.788;2023-02-13T06:24:37;15.70;;;11.00;;
38611;SDS011;24368;52.156;20.788;2023-02-13T06:29:38;14.70;;;10.10;;
38611;SDS011;24368;52.156;20.788;2023-02-13T06:34:40;13.30;;;10.80;;
38611;SDS011;24368;52.156;20.788;2023-02-13T06:39:42;15.60;;;11.30;;
38611;SDS011;24368;52.156;20.788;2023-02-13T06:44:44;13.90;;;10.10;;
38611;SDS011;24368;52.156;20.788;2023-02-13T06:49:46;15.80;;;11.40;;
38611;SDS011;24368;52.156;20.788;2023-02-13T06:54:47;13.70;;;10.80;;
38611;SDS011;24368;52.156;20.788;2023-02-13T06:59:49;13.90;;;10.00;;
38611;SDS011;24368;52.156;20.788;2023-02-13T07:04:51;15.90;;;10.40;;
38611;SDS011;24368;52.156;20.788;2023-02-13T07:09:53;13.70;;;9.60;;
38611;SDS011;24368;52.156;20.788;2023-02-13T07:14:54;14.80;;;9.80;;
38611;SDS011;24368;52.156;20.788;2023-02-13T07:19:56;12.90;;;9.00;;
38611;SDS011;24368;52.156;20.788;2023-02-13T07:24:58;13.20;;;10.20;;
38611;SDS011;24368;52.156;20.788;2023-02-13T07:30:01;12.20;;;8.10;;
38611;SDS011;24368;52.156;20.788;2023-02-13T07:35:03;10.70;;;9.10;;
38611;SDS011;24368;52.156;20.788;2023-02-13T07:40:05;14.70;;;9.50;;
38611;SDS011;24368;52.156;20.788;2023-02-13T07:45:07;10.40;;;7.50;;
38611;SDS011;24368;52.156;20.788;2023-02-13T07:50:10;11.60;;;9.00;;
38611;SDS011;24368;52.156;20.788;2023-02-13T07:55:12;13.70;;;8.10;;
38611;SDS011;24368;52.156;20.788;2023-02-13T08:00:14;13.20;;;9.00;;
38611;SDS011;24368;52.156;20.788;2023-02-13T08:05:17;11.70;;;8.30;;
38611;SDS011;24368;52.156;20.788;2023-02-13T08:10:19;12.20;;;7.30;;
38611;SDS011;24368;52.156;20.788;2023-02-13T08:15:39;9.30;;;6.60;;
38611;SDS011;24368;52.156;20.788;2023-02-13T08:20:41;8.90;;;6.40;;
38611;SDS011;24368;52.156;20.788;2023-02-13T08:25:43;11.20;;;6.60;;
38611;SDS011;24368;52.156;20.788;2023-02-13T08:30:45;8.90;;;6.40;;
38611;SDS011;24368;52.156;20.788;2023-02-13T08:35:47;9.40;;;7.50;;
38611;SDS011;24368;52.156;20.788;2023-02-13T08:40:49;10.80;;;7.00;;
38611;SDS011;24368;52.156;20.788;2023-02-13T08:45:50;7.60;;;5.90;;
38611;SDS011;24368;52.156;20.788;2023-02-13T08:50:52;6.20;;;4.90;;
38611;SDS011;24368;52.156;20.788;2023-02-13T08:55:55;7.60;;;5.20;;
38611;SDS011;24368;52.156;20.788;2023-02-13T09:00:58;9.10;;;6.10;;
38611;SDS011;24368;52.156;20.788;2023-02-13T09:06:00;6.40;;;4.90;;
38611;SDS011;24368;52.156;20.788;2023-02-13T09:11:03;8.30;;;5.40;;
38611;SDS011;24368;52.156;20.788;2023-02-13T09:16:07;11.20;;;6.20;;
38611;SDS011;24368;52.156;20.788;2023-02-13T09:21:11;8.30;;;6.10;;
38611;SDS011;24368;52.156;20.788;2023-02-13T09:26:13;6.50;;;5.60;;
38611;SDS011;24368;52.156;20.788;2023-02-13T09:31:17;14.10;;;12.50;;
38611;SDS011;24368;52.156;20.788;2023-02-13T09:36:21;7.80;;;6.70;;
38611;SDS011;24368;52.156;20.788;2023-02-13T09:41:29;7.80;;;7.00;;
38611;SDS011;24368;52.156;20.788;2023-02-13T09:46:35;9.00;;;7.50;;
38611;SDS011;24368;52.156;20.788;2023-02-13T09:51:40;9.10;;;6.70;;
38611;SDS011;24368;52.156;20.788;2023-02-13T09:56:49;8.30;;;6.70;;
38611;SDS011;24368;52.156;20.788;2023-02-13T10:02:02;10.10;;;8.50;;
38611;SDS011;24368;52.156;20.788;2023-02-13T10:08:20;8.60;;;6.70;;
38611;SDS011;24368;52.156;20.788;2023-02-13T10:18:13;9.20;;;7.40;;
38611;SDS011;24368;52.156;20.788;2023-02-13T10:23:29;12.30;;;8.40;;
38611;SDS011;24368;52.156;20.788;2023-02-13T10:34:26;7.70;;;7.00;;
38611;SDS011;24368;52.156;20.788;2023-02-13T10:39:32;8.40;;;7.30;;
38611;SDS011;24368;52.156;20.788;2023-02-13T10:49:59;8.80;;;7.80;;
38611;SDS011;24368;52.156;20.788;2023-02-13T11:05:37;8.80;;;7.10;;
38611;SDS011;24368;52.156;20.788;2023-02-13T11:10:40;12.50;;;9.30;;
38611;SDS011;24368;52.156;20.788;2023-02-13T11:15:41;8.50;;;6.40;;
38611;SDS011;24368;52.156;20.788;2023-02-13T11:20:59;8.70;;;7.60;;
38611;SDS011;24368;52.156;20.788;2023-02-13T11:26:32;8.80;;;7.90;;
38611;SDS011;24368;52.156;20.788;2023-02-13T11:31:36;9.00;;;7.80;;
38611;SDS011;24368;52.156;20.788;2023-02-13T11:36:38;9.20;;;7.40;;
38611;SDS011;24368;52.156;20.788;2023-02-13T11:41:41;9.80;;;8.00;;
38611;SDS011;24368;52.156;20.788;2023-02-13T11:46:48;8.00;;;6.60;;
38611;SDS011;24368;52.156;20.788;2023-02-13T11:51:58;10.20;;;7.80;;
38611;SDS011;24368;52.156;20.788;2023-02-13T11:57:08;8.80;;;7.90;;
38611;SDS011;24368;52.156;20.788;2023-02-13T12:07:20;11.90;;;8.10;;
38611;SDS011;24368;52.156;20.788;2023-02-13T12:17:30;10.90;;;7.80;;
38611;SDS011;24368;52.156;20.788;2023-02-13T13:21:47;6.50;;;5.90;;
38611;SDS011;24368;52.156;20.788;2023-02-13T13:26:57;9.40;;;6.60;;
38611;SDS011;24368;52.156;20.788;2023-02-13T13:32:02;9.50;;;8.00;;
38611;SDS011;24368;52.156;20.788;2023-02-13T13:53:14;8.50;;;7.60;;
38611;SDS011;24368;52.156;20.788;2023-02-13T13:58:22;8.60;;;7.40;;
38611;SDS011;24368;52.156;20.788;2023-02-13T14:03:32;9.30;;;7.10;;
38611;SDS011;24368;52.156;20.788;2023-02-13T14:13:41;8.00;;;6.60;;
38611;SDS011;24368;52.156;20.788;2023-02-13T14:18:46;9.50;;;6.80;;
38611;SDS011;24368;52.156;20.788;2023-02-13T14:23:48;5.70;;;4.70;;
38611;SDS011;24368;52.156;20.788;2023-02-13T14:28:55;5.90;;;4.70;;
38611;SDS011;24368;52.156;20.788;2023-02-13T14:34:00;8.60;;;6.40;;
38611;SDS011;24368;52.156;20.788;2023-02-13T14:44:13;7.90;;;6.10;;
38611;SDS011;24368;52.156;20.788;2023-02-13T14:59:39;7.00;;;5.00;;
38611;SDS011;24368;52.156;20.788;2023-02-13T15:05:11;6.20;;;5.50;;
38611;SDS011;24368;52.156;20.788;2023-02-13T15:15:41;7.20;;;5.80;;
38611;SDS011;24368;52.156;20.788;2023-02-13T15:20:43;6.40;;;5.20;;
38611;SDS011;24368;52.156;20.788;2023-02-13T15:25:47;7.40;;;6.20;;
38611;SDS011;24368;52.156;20.788;2023-02-13T15:31:02;7.80;;;5.30;;
38611;SDS011;24368;52.156;20.788;2023-02-13T15:36:06;8.70;;;5.50;;
38611;SDS011;24368;52.156;20.788;2023-02-13T15:41:17;7.90;;;5.30;;
38611;SDS011;24368;52.156;20.788;2023-02-13T15:51:30;6.70;;;5.40;;
38611;SDS011;24368;52.156;20.788;2023-02-13T15:56:34;7.70;;;4.90;;
38611;SDS011;24368;52.156;20.788;2023-02-13T16:01:38;7.20;;;5.00;;
38611;SDS011;24368;52.156;20.788;2023-02-13T16:06:44;6.50;;;5.10;;
38611;SDS011;24368;52.156;20.788;2023-02-13T16:11:48;8.90;;;5.40;;
38611;SDS011;24368;52.156;20.788;2023-02-13T16:16:52;7.00;;;5.50;;
38611;SDS011;24368;52.156;20.788;2023-02-13T16:22:13;8.30;;;5.70;;
38611;SDS011;24368;52.156;20.788;2023-02-13T16:27:24;7.40;;;6.00;;
38611;SDS011;24368;52.156;20.788;2023-02-13T16:32:28;7.20;;;5.60;;
38611;SDS011;24368;52.156;20.788;2023-02-13T16:37:32;7.60;;;5.30;;
38611;SDS011;24368;52.156;20.788;2023-02-13T16:42:34;8.50;;;6.20;;
38611;SDS011;24368;52.156;20.788;2023-02-13T16:47:36;8.60;;;5.30;;
38611;SDS011;24368;52.156;20.788;2023-02-13T16:52:38;7.90;;;5.80;;
38611;SDS011;24368;52.156;20.788;2023-02-13T16:57:40;8.30;;;6.10;;
38611;SDS011;24368;52.156;20.788;2023-02-13T17:02:45;10.30;;;5.80;;
38611;SDS011;24368;52.156;20.788;2023-02-13T17:07:49;10.30;;;6.10;;
38611;SDS011;24368;52.156;20.788;2023-02-13T17:12:54;8.40;;;5.50;;
38611;SDS011;24368;52.156;20.788;2023-02-13T17:17:59;6.80;;;5.10;;
38611;SDS011;24368;52.156;20.788;2023-02-13T17:23:02;6.10;;;4.60;;
38611;SDS011;24368;52.156;20.788;2023-02-13T17:28:13;8.00;;;5.10;;
38611;SDS011;24368;52.156;20.788;2023-02-13T17:33:21;6.90;;;4.10;;
38611;SDS011;24368;52.156;20.788;2023-02-13T17:38:28;9.20;;;5.60;;
38611;SDS011;24368;52.156;20.788;2023-02-13T17:43:30;7.90;;;4.80;;
38611;SDS011;24368;52.156;20.788;2023-02-13T17:48:32;7.40;;;4.60;;
38611;SDS011;24368;52.156;20.788;2023-02-13T17:53:34;5.80;;;4.30;;
38611;SDS011;24368;52.156;20.788;2023-02-13T17:58:37;7.50;;;5.50;;
38611;SDS011;24368;52.156;20.788;2023-02-13T18:03:38;8.00;;;5.00;;
38611;SDS011;24368;52.156;20.788;2023-02-13T18:08:40;7.90;;;5.10;;
38611;SDS011;24368;52.156;20.788;2023-02-13T18:13:42;7.10;;;6.00;;
38611;SDS011;24368;52.156;20.788;2023-02-13T18:18:48;5.70;;;4.90;;
38611;SDS011;24368;52.156;20.788;2023-02-13T18:23:53;7.30;;;6.60;;
38611;SDS011;24368;52.156;20.788;2023-02-13T18:28:54;10.60;;;6.40;;
38611;SDS011;24368;52.156;20.788;2023-02-13T18:33:56;10.80;;;8.00;;
38611;SDS011;24368;52.156;20.788;2023-02-13T18:38:59;11.00;;;7.50;;
38611;SDS011;24368;52.156;20.788;2023-02-13T18:44:01;10.90;;;8.00;;
38611;SDS011;24368;52.156;20.788;2023-02-13T18:49:03;13.00;;;9.20;;
38611;SDS011;24368;52.156;20.788;2023-02-13T18:54:05;14.70;;;8.00;;
38611;SDS011;24368;52.156;20.788;2023-02-13T18:59:07;11.20;;;8.10;;
38611;SDS011;24368;52.156;20.788;2023-02-13T19:04:09;9.80;;;8.00;;
38611;SDS011;24368;52.156;20.788;2023-02-13T19:09:11;11.80;;;8.20;;
38611;SDS011;24368;52.156;20.788;2023-02-13T19:14:13;9.90;;;7.90;;
38611;SDS011;24368;52.156;20.788;2023-02-13T19:19:16;10.70;;;7.90;;
38611;SDS011;24368;52.156;20.788;2023-02-13T19:24:18;12.60;;;7.80;;
38611;SDS011;24368;52.156;20.788;2023-02-13T19:29:20;9.50;;;7.80;;
38611;SDS011;24368;52.156;20.788;2023-02-13T19:34:22;9.80;;;6.90;;
38611;SDS011;24368;52.156;20.788;2023-02-13T19:39:24;7.30;;;6.60;;
38611;SDS011;24368;52.156;20.788;2023-02-13T19:44:26;8.30;;;6.40;;
38611;SDS011;24368;52.156;20.788;2023-02-13T19:49:28;8.70;;;6.50;;
38611;SDS011;24368;52.156;20.788;2023-02-13T19:54:30;9.50;;;6.60;;
38611;SDS011;24368;52.156;20.788;2023-02-13T19:59:32;10.70;;;6.20;;
38611;SDS011;24368;52.156;20.788;2023-02-13T20:04:34;10.30;;;6.80;;
38611;SDS011;24368;52.156;20.788;2023-02-13T20:09:37;10.10;;;6.40;;
38611;SDS011;24368;52.156;20.788;2023-02-13T20:14:40;7.30;;;5.80;;
38611;SDS011;24368;52.156;20.788;2023-02-13T20:19:42;9.50;;;6.30;;
38611;SDS011;24368;52.156;20.788;2023-02-13T20:24:44;8.40;;;5.40;;
38611;SDS011;24368;52.156;20.788;2023-02-13T20:29:47;7.20;;;6.20;;
38611;SDS011;24368;52.156;20.788;2023-02-13T20:34:49;7.10;;;5.80;;
38611;SDS011;24368;52.156;20.788;2023-02-13T20:39:51;9.80;;;6.20;;
38611;SDS011;24368;52.156;20.788;2023-02-13T20:44:52;12.10;;;5.90;;
38611;SDS011;24368;52.156;20.788;2023-02-13T20:49:54;9.50;;;6.30;;
38611;SDS011;24368;52.156;20.788;2023-02-13T20:54:56;6.90;;;5.40;;
38611;SDS011;24368;52.156;20.788;2023-02-13T20:59:58;7.80;;;5.30;;
38611;SDS011;24368;52.156;20.788;2023-02-13T21:05:00;7.10;;;5.80;;
38611;SDS011;24368;52.156;20.788;2023-02-13T21:10:02;7.20;;;5.20;;
38611;SDS011;24368;52.156;20.788;2023-02-13T21:15:06;8.80;;;5.90;;
38611;SDS011;24368;52.156;20.788;2023-02-13T21:20:08;8.50;;;5.70;;
38611;SDS011;24368;52.156;20.788;2023-02-13T21:25:11;7.50;;;5.50;;
38611;SDS011;24368;52.156;20.788;2023-02-13T21:30:15;7.00;;;4.90;;
38611;SDS011;24368;52.156;20.788;2023-02-13T21:35:17;8.30;;;6.30;;
38611;SDS011;24368;52.156;20.788;2023-02-13T21:40:19;7.10;;;5.60;;
38611;SDS011;24368;52.156;20.788;2023-02-13T21:45:21;10.10;;;6.10;;
38611;SDS011;24368;52.156;20.788;2023-02-13T21:50:23;7.80;;;6.70;;
38611;SDS011;24368;52.156;20.788;2023-02-13T21:55:24;8.80;;;6.30;;
38611;SDS011;24368;52.156;20.788;2023-02-13T22:00:28;11.50;;;7.50;;
38611;SDS011;24368;52.156;20.788;2023-02-13T22:05:30;9.60;;;7.00;;
38611;SDS011;24368;52.156;20.788;2023-02-13T22:10:32;11.40;;;6.40;;
38611;SDS011;24368;52.156;20.788;2023-02-13T22:15:34;9.90;;;7.20;;
38611;SDS011;24368;52.156;20.788;2023-02-13T22:20:36;12.40;;;7.90;;
38611;SDS011;24368;52.156;20.788;2023-02-13T22:25:38;11.00;;;8.40;;
38611;SDS011;24368;52.156;20.788;2023-02-13T22:30:40;13.20;;;7.50;;
38611;SDS011;24368;52.156;20.788;2023-02-13T22:35:45;8.40;;;6.70;;
38611;SDS011;24368;52.156;20.788;2023-02-13T22:40:47;10.50;;;7.20;;
38611;SDS011;24368;52.156;20.788;2023-02-13T22:45:49;9.70;;;6.40;;
38611;SDS011;24368;52.156;20.788;2023-02-13T22:50:51;9.80;;;6.30;;
38611;SDS011;24368;52.156;20.788;2023-02-13T22:55:53;9.80;;;6.70;;
38611;SDS011;24368;52.156;20.788;2023-02-13T23:00:55;8.60;;;6.10;;
38611;SDS011;24368;52.156;20.788;2023-02-13T23:05:57;7.20;;;5.60;;
38611;SDS011;24368;52.156;20.788;2023-02-13T23:11:02;10.00;;;7.10;;
38611;SDS011;24368;52.156;20.788;2023-02-13T23:16:31;8.00;;;6.40;;
38611;SDS011;24368;52.156;20.788;2023-02-13T23:21:53;8.80;;;6.40;;
38611;SDS011;24368;52.156;20.788;2023-02-13T23:26:55;8.70;;;7.40;;
38611;SDS011;24368;52.156;20.788;2023-02-13T23:31:57;8.80;;;7.20;;
38611;SDS011;24368;52.156;20.788;2023-02-13T23:36:59;8.40;;;6.00;;
38611;SDS011;24368;52.156;20.788;2023-02-13T23:42:00;8.40;;;6.50;;
38611;SDS011;24368;52.156;20.788;2023-02-13T23:47:02;10.30;;;6.30;;
38611;SDS011;24368;52.156;20.788;2023-02-13T23:52:04;10.20;;;6.90;;
38611;SDS011;24368;52.156;20.788;2023-02-13T23:57:06;10.30;;;6.90;;
